Time;durP1;ratioP1;P1;durP2;ratioP2;P2;SDS_P1;SDS_P2;PMS_P1;PMS_P2;Temp;Humidity;BMP_temperature;BMP_pressure;BME280_temperature;BME280_humidity;BME280_pressure;Samples;Min_cycle;Max_cycle;Signal;HPM_P1;HPM_P2
2021/04/08 00:02:24;;;;;;;3.97;2.40;;;5.60;85.60;;;;;;5051083;28;20234;-84
2021/04/08 00:04:51;;;;;;;6.88;2.63;;;5.70;85.00;;;;;;5057461;28;20203;-84
2021/04/08 00:07:18;;;;;;;2.63;2.43;;;5.70;90.10;;;;;;5056350;28;20696;-83
2021/04/08 00:09:45;;;;;;;4.63;2.53;;;5.60;97.20;;;;;;5059615;28;20554;-82
2021/04/08 00:12:13;;;;;;;2.35;2.20;;;5.50;99.90;;;;;;5059221;28;20232;-82
2021/04/08 00:14:40;;;;;;;3.17;2.88;;;5.60;99.90;;;;;;5045688;28;20198;-83
2021/04/08 00:17:08;;;;;;;2.80;2.60;;;5.90;99.90;;;;;;5054691;28;20192;-82
2021/04/08 00:19:35;;;;;;;2.80;2.40;;;5.60;99.90;;;;;;5059241;28;20217;-81
2021/04/08 00:22:03;;;;;;;2.70;2.30;;;5.60;99.90;;;;;;5050081;28;20585;-83
2021/04/08 00:24:30;;;;;;;3.05;2.78;;;5.60;99.90;;;;;;5063756;28;20946;-82
2021/04/08 00:26:57;;;;;;;4.63;2.57;;;5.50;99.90;;;;;;5048760;28;20224;-82
2021/04/08 00:29:24;;;;;;;2.85;2.65;;;5.60;99.90;;;;;;5054981;28;20456;-81
2021/04/08 00:31:51;;;;;;;3.30;2.80;;;5.50;99.90;;;;;;5058666;28;20560;-82
2021/04/08 00:34:20;;;;;;;2.90;2.60;;;5.60;99.90;;;;;;5051146;28;20218;-83
2021/04/08 00:36:47;;;;;;;3.63;2.25;;;5.60;99.90;;;;;;5055998;28;20201;-84
2021/04/08 00:39:14;;;;;;;4.17;3.80;;;5.60;99.90;;;;;;5043126;28;20210;-83
2021/04/08 00:41:42;;;;;;;2.60;2.33;;;5.70;99.90;;;;;;5056545;28;20487;-81
2021/04/08 00:44:09;;;;;;;3.80;3.35;;;5.40;99.90;;;;;;5052054;28;20216;-82
2021/04/08 00:46:37;;;;;;;4.50;2.92;;;5.30;99.90;;;;;;5056196;28;20226;-81
2021/04/08 00:49:04;;;;;;;4.03;3.10;;;5.10;99.90;;;;;;5053358;28;20225;-80
2021/04/08 00:51:32;;;;;;;3.22;2.78;;;5.00;99.90;;;;;;5049860;28;20320;-81
2021/04/08 00:54:00;;;;;;;5.30;3.72;;;5.10;99.90;;;;;;5051641;28;20221;-82
2021/04/08 00:56:27;;;;;;;7.38;3.00;;;4.90;99.90;;;;;;5054367;28;20203;-80
2021/04/08 00:58:54;;;;;;;5.65;3.17;;;4.90;99.90;;;;;;5051551;28;20209;-82
2021/04/08 01:01:22;;;;;;;4.50;2.70;;;5.00;99.90;;;;;;5061783;28;20299;-81
2021/04/08 01:03:49;;;;;;;4.32;2.65;;;4.80;99.90;;;;;;5053200;28;20205;-81
2021/04/08 01:06:16;;;;;;;3.67;2.50;;;4.90;99.90;;;;;;5056840;28;20229;-81
2021/04/08 01:08:44;;;;;;;4.75;2.95;;;4.90;99.90;;;;;;5046452;28;20216;-81
2021/04/08 01:11:12;;;;;;;5.10;3.60;;;5.00;99.90;;;;;;5050062;28;20309;-81
2021/04/08 01:13:39;;;;;;;5.80;3.40;;;4.70;99.90;;;;;;5057613;28;20210;-82
2021/04/08 01:16:13;;;;;;;3.63;3.25;;;4.90;99.90;;;;;;5046522;28;20228;-85
2021/04/08 01:18:53;;;;;;;3.83;2.70;;;4.70;99.90;;;;;;5053664;28;20601;-83
2021/04/08 01:21:27;;;;;;;4.20;3.08;;;4.70;99.90;;;;;;5059021;28;20297;-84
2021/04/08 01:24:30;;;;;;;3.80;3.05;;;4.90;99.90;;;;;;5063763;28;20338;-84
2021/04/08 01:27:30;;;;;;;3.35;2.75;;;4.90;99.90;;;;;;5065830;28;20229;-83
2021/04/08 01:30:11;;;;;;;3.90;2.85;;;5.10;99.90;;;;;;5067927;28;20216;-85
2021/04/08 01:32:44;;;;;;;4.05;3.72;;;5.10;99.90;;;;;;5049291;28;20246;-87
2021/04/08 01:35:13;;;;;;;4.15;2.65;;;5.00;99.90;;;;;;5060924;28;20215;-85
2021/04/08 01:37:47;;;;;;;2.88;2.38;;;5.10;98.90;;;;;;5061543;28;20217;-84
2021/04/08 01:40:16;;;;;;;5.25;2.90;;;5.10;99.90;;;;;;5064761;28;20216;-82
2021/04/08 01:42:45;;;;;;;4.80;2.95;;;5.20;99.00;;;;;;5052341;28;20231;-84
2021/04/08 01:45:16;;;;;;;3.53;2.92;;;5.20;97.40;;;;;;5062368;28;20222;-83
2021/04/08 01:47:46;;;;;;;3.42;2.67;;;5.10;95.00;;;;;;5055677;28;20223;-84
2021/04/08 01:50:15;;;;;;;4.90;2.50;;;5.00;94.20;;;;;;5064751;28;20226;-82
2021/04/08 01:52:45;;;;;;;4.10;2.88;;;5.20;94.40;;;;;;5059805;28;21001;-81
2021/04/08 01:55:13;;;;;;;2.80;2.60;;;5.30;93.80;;;;;;5057875;28;20325;-80
2021/04/08 01:57:43;;;;;;;6.75;3.30;;;5.50;86.90;;;;;;5059893;28;20233;-81
2021/04/08 02:00:13;;;;;;;3.55;2.47;;;5.60;81.70;;;;;;5063619;28;20214;-80
2021/04/08 02:02:45;;;;;;;5.97;2.70;;;5.60;67.90;;;;;;5051364;28;20237;-80
2021/04/08 02:05:15;;;;;;;3.23;2.93;;;5.70;68.50;;;;;;5064278;28;20208;-80
2021/04/08 02:07:46;;;;;;;4.43;2.70;;;5.60;71.00;;;;;;5053437;28;20494;-80
2021/04/08 02:10:15;;;;;;;3.20;3.00;;;5.60;63.10;;;;;;5065397;28;20954;-80
2021/04/08 02:12:47;;;;;;;2.67;2.47;;;5.60;61.90;;;;;;5047555;28;20471;-79
2021/04/08 02:15:18;;;;;;;6.55;2.67;;;5.90;53.90;;;;;;5048631;28;20623;-78
2021/04/08 02:17:47;;;;;;;2.77;2.23;;;5.60;57.00;;;;;;5057577;28;20213;-78
2021/04/08 02:20:18;;;;;;;2.85;2.05;;;5.80;51.60;;;;;;5054623;28;20984;-78
2021/04/08 02:22:47;;;;;;;3.97;2.57;;;5.70;52.10;;;;;;5051196;28;20237;-80
2021/04/08 02:25:16;;;;;;;3.03;2.72;;;5.70;50.80;;;;;;5059265;28;20463;-79
2021/04/08 02:27:44;;;;;;;3.20;2.90;;;5.80;51.40;;;;;;5056157;28;20319;-79
2021/04/08 02:30:16;;;;;;;2.53;1.98;;;5.80;46.90;;;;;;5049121;28;20997;-80
2021/04/08 02:32:43;;;;;;;1.67;1.58;;;5.70;48.70;;;;;;5053508;28;20232;-81
2021/04/08 02:35:13;;;;;;;2.97;1.67;;;5.70;51.80;;;;;;5052512;28;20302;-80
2021/04/08 02:37:41;;;;;;;1.80;1.70;;;5.60;53.40;;;;;;5050465;28;20215;-79
2021/04/08 02:40:11;;;;;;;1.80;1.70;;;5.50;51.40;;;;;;5057576;28;20756;-81
2021/04/08 02:42:38;;;;;;;3.47;1.70;;;5.60;56.40;;;;;;5053034;28;20475;-80
2021/04/08 02:45:09;;;;;;;1.80;1.67;;;5.60;56.30;;;;;;5057522;28;20478;-77
2021/04/08 02:47:37;;;;;;;4.10;2.00;;;5.60;57.00;;;;;;5051351;28;20492;-82
2021/04/08 02:50:05;;;;;;;1.85;1.50;;;5.60;56.50;;;;;;5047312;28;20239;-80
2021/04/08 02:52:40;;;;;;;2.97;2.10;;;5.50;58.50;;;;;;5051822;28;20712;-78
2021/04/08 02:55:15;;;;;;;2.15;1.75;;;5.50;62.00;;;;;;5059129;28;20688;-80
2021/04/08 02:57:55;;;;;;;2.10;1.58;;;5.60;62.00;;;;;;5054782;28;20201;-78
2021/04/08 03:00:29;;;;;;;3.33;2.13;;;5.40;63.80;;;;;;5044267;28;20205;-81
2021/04/08 03:03:01;;;;;;;1.88;1.60;;;5.40;72.90;;;;;;5060471;28;20243;-80
2021/04/08 03:05:30;;;;;;;1.83;1.50;;;5.40;70.60;;;;;;5060249;28;20843;-78
2021/04/08 03:07:59;;;;;;;2.83;2.10;;;5.40;69.70;;;;;;5053477;28;20229;-79
2021/04/08 03:10:28;;;;;;;1.63;1.52;;;5.70;77.60;;;;;;5049451;28;20212;-80
2021/04/08 03:12:57;;;;;;;2.20;1.80;;;5.50;77.40;;;;;;5055755;28;20411;-80
2021/04/08 03:15:27;;;;;;;2.87;1.70;;;5.40;72.90;;;;;;5054341;28;20226;-80
2021/04/08 03:17:56;;;;;;;3.40;1.70;;;5.50;65.90;;;;;;5052800;28;20462;-80
2021/04/08 03:20:24;;;;;;;2.03;1.60;;;5.50;62.60;;;;;;5053968;28;20375;-80
2021/04/08 03:22:53;;;;;;;3.50;1.52;;;5.50;59.80;;;;;;5059446;28;20226;-80
2021/04/08 03:25:21;;;;;;;3.80;1.87;;;5.40;53.60;;;;;;5051722;28;20219;-80
2021/04/08 03:27:51;;;;;;;3.37;1.40;;;5.50;55.40;;;;;;5045562;28;20495;-78
2021/04/08 03:30:20;;;;;;;1.30;1.20;;;5.50;48.00;;;;;;5058029;28;21392;-79
2021/04/08 03:32:47;;;;;;;1.83;1.60;;;5.60;44.60;;;;;;5052018;28;20656;-80
2021/04/08 03:35:16;;;;;;;4.55;1.70;;;5.60;42.40;;;;;;5062812;28;20215;-80
2021/04/08 03:37:43;;;;;;;6.15;1.90;;;5.60;38.90;;;;;;5051622;28;20221;-80
2021/04/08 03:40:12;;;;;;;2.50;1.23;;;5.60;35.40;;;;;;5057345;28;20224;-79
2021/04/08 03:42:39;;;;;;;2.85;1.63;;;5.60;36.30;;;;;;5058517;28;20327;-79
2021/04/08 03:45:10;;;;;;;2.80;1.40;;;5.50;30.30;;;;;;5056430;28;20233;-80
2021/04/08 03:47:40;;;;;;;1.80;1.17;;;5.60;30.00;;;;;;5058484;28;20299;-80
2021/04/08 03:50:10;;;;;;;2.60;1.50;;;5.70;31.40;;;;;;5055296;28;20224;-79
2021/04/08 03:52:38;;;;;;;2.58;1.27;;;5.70;30.00;;;;;;5055614;28;20867;-79
2021/04/08 03:55:08;;;;;;;4.68;1.33;;;5.60;27.70;;;;;;5056677;28;20215;-79
2021/04/08 03:57:38;;;;;;;2.05;1.50;;;5.60;28.00;;;;;;5057207;28;20199;-82
2021/04/08 04:00:09;;;;;;;1.67;1.57;;;5.60;27.80;;;;;;5060496;28;20674;-79
2021/04/08 04:02:37;;;;;;;1.80;1.50;;;5.50;27.10;;;;;;5050618;28;20483;-79
2021/04/08 04:05:08;;;;;;;1.17;1.10;;;5.50;25.90;;;;;;5061263;28;20235;-80
2021/04/08 04:07:36;;;;;;;1.35;1.15;;;5.50;25.90;;;;;;5054906;28;20244;-81
2021/04/08 04:10:05;;;;;;;1.73;1.08;;;5.50;24.00;;;;;;5064088;28;20212;-81
2021/04/08 04:12:34;;;;;;;2.15;1.17;;;5.50;22.90;;;;;;5047301;28;20233;-82
2021/04/08 04:15:06;;;;;;;1.83;1.30;;;5.60;24.30;;;;;;5064509;28;20224;-82
2021/04/08 04:17:34;;;;;;;3.70;1.90;;;5.60;24.50;;;;;;5059671;28;20450;-80
2021/04/08 04:20:04;;;;;;;5.55;1.90;;;5.70;24.30;;;;;;5058034;28;20463;-81
2021/04/08 04:22:40;;;;;;;2.87;1.20;;;5.70;24.00;;;;;;5044465;28;20793;-81
2021/04/08 04:25:09;;;;;;;1.50;1.40;;;5.60;22.50;;;;;;5050623;28;20462;-82
2021/04/08 04:27:37;;;;;;;3.58;1.38;;;5.60;23.00;;;;;;5060381;28;20224;-82
2021/04/08 04:30:06;;;;;;;1.35;1.00;;;5.80;23.60;;;;;;5042740;28;20205;-82
2021/04/08 04:32:35;;;;;;;2.38;1.27;;;5.60;23.00;;;;;;5048442;28;20705;-82
2021/04/08 04:35:03;;;;;;;1.55;1.45;;;5.60;22.80;;;;;;5054564;28;20205;-83
2021/04/08 04:37:31;;;;;;;2.50;1.37;;;5.50;22.90;;;;;;5054934;28;20639;-82
2021/04/08 04:39:58;;;;;;;1.25;1.15;;;5.50;23.60;;;;;;5055549;28;20476;-81
2021/04/08 04:42:25;;;;;;;1.30;1.20;;;5.40;20.80;;;;;;5057011;28;20260;-80
2021/04/08 04:44:52;;;;;;;1.45;1.35;;;5.30;19.90;;;;;;5064042;28;20471;-80
2021/04/08 04:47:19;;;;;;;1.40;1.30;;;5.40;22.20;;;;;;5051888;28;20233;-81
2021/04/08 04:49:49;;;;;;;2.70;1.27;;;5.40;18.30;;;;;;5056755;28;20460;-84
2021/04/08 04:52:17;;;;;;;3.47;1.60;;;5.30;17.10;;;;;;5068447;28;20233;-81
2021/04/08 04:54:44;;;;;;;1.73;1.00;;;5.20;19.80;;;;;;5066400;28;20304;-82
2021/04/08 04:57:12;;;;;;;1.90;1.23;;;5.20;18.20;;;;;;5061522;28;20740;-79
2021/04/08 04:59:40;;;;;;;3.75;1.50;;;5.20;19.60;;;;;;5063489;28;20200;-80
2021/04/08 05:02:10;;;;;;;3.65;1.40;;;5.50;17.60;;;;;;5059169;28;20327;-79
2021/04/08 05:04:38;;;;;;;3.00;1.17;;;5.20;16.80;;;;;;5058251;28;20211;-80
2021/04/08 05:07:06;;;;;;;3.17;2.15;;;5.10;17.10;;;;;;5061447;28;20232;-80
2021/04/08 05:09:34;;;;;;;1.58;1.10;;;5.20;18.50;;;;;;5057713;28;20436;-80
2021/04/08 05:12:01;;;;;;;1.35;1.17;;;5.20;19.70;;;;;;5063900;28;20233;-82
2021/04/08 05:14:28;;;;;;;3.00;1.50;;;5.20;19.20;;;;;;5055706;28;20204;-82
2021/04/08 05:16:55;;;;;;;7.18;1.83;;;5.10;19.00;;;;;;5068927;28;20221;-83
2021/04/08 05:19:23;;;;;;;1.88;1.33;;;5.50;20.30;;;;;;5053232;28;20212;-81
2021/04/08 05:21:50;;;;;;;1.92;1.30;;;5.30;17.80;;;;;;5064419;28;20399;-81
2021/04/08 05:24:19;;;;;;;1.40;1.30;;;5.00;19.20;;;;;;5053119;28;20237;-81
2021/04/08 05:26:46;;;;;;;2.75;2.35;;;5.10;20.60;;;;;;5058703;28;20222;-82
2021/04/08 05:29:13;;;;;;;4.45;1.55;;;5.10;21.20;;;;;;5056657;28;20216;-81
2021/04/08 05:31:41;;;;;;;1.98;1.58;;;5.20;22.20;;;;;;5062352;28;20231;-80
2021/04/08 05:34:08;;;;;;;1.90;1.50;;;5.30;22.50;;;;;;5057830;28;20455;-82
2021/04/08 05:36:35;;;;;;;2.10;1.30;;;5.50;22.10;;;;;;5062327;28;20215;-80
2021/04/08 05:39:04;;;;;;;3.20;1.60;;;5.50;20.00;;;;;;5066649;28;20248;-82
2021/04/08 05:41:32;;;;;;;3.75;1.52;;;5.50;18.40;;;;;;5067935;28;20221;-81
2021/04/08 05:43:59;;;;;;;1.55;1.30;;;5.40;18.10;;;;;;5064244;28;20205;-80
2021/04/08 05:46:27;;;;;;;4.97;1.40;;;5.50;17.80;;;;;;5067818;28;20245;-81
2021/04/08 05:48:54;;;;;;;1.67;1.30;;;5.60;18.20;;;;;;5056333;28;20205;-81
2021/04/08 05:51:21;;;;;;;1.40;1.30;;;5.60;15.40;;;;;;5066494;28;20213;-81
2021/04/08 05:53:49;;;;;;;3.00;1.30;;;5.80;13.30;;;;;;5064102;28;20208;-82
2021/04/08 05:56:16;;;;;;;3.40;1.60;;;5.50;14.30;;;;;;5062226;28;20204;-79
2021/04/08 05:58:44;;;;;;;3.95;1.70;;;5.50;13.50;;;;;;5065469;28;21029;-81
2021/04/08 06:01:12;;;;;;;3.70;1.40;;;5.60;14.00;;;;;;5063169;28;20241;-81
2021/04/08 06:03:39;;;;;;;2.53;1.35;;;5.50;12.90;;;;;;5054851;28;20232;-81
2021/04/08 06:06:07;;;;;;;2.85;1.30;;;5.50;12.60;;;;;;5050667;28;20212;-80
2021/04/08 06:08:35;;;;;;;3.28;1.30;;;5.40;11.80;;;;;;5049340;28;20727;-80
2021/04/08 06:11:02;;;;;;;4.60;2.15;;;5.50;14.20;;;;;;5060608;28;20209;-81
2021/04/08 06:13:33;;;;;;;3.15;1.60;;;5.60;12.20;;;;;;5059109;28;20225;-80
2021/04/08 06:16:02;;;;;;;1.50;1.40;;;5.70;12.30;;;;;;5052932;28;20489;-82
2021/04/08 06:18:29;;;;;;;2.83;1.70;;;5.70;12.40;;;;;;5052879;28;20499;-78
2021/04/08 06:20:56;;;;;;;2.05;1.85;;;6.00;11.70;;;;;;5046771;28;21017;-82
2021/04/08 06:23:24;;;;;;;1.83;1.13;;;5.80;9.60;;;;;;5051336;28;20267;-79
2021/04/08 06:25:51;;;;;;;2.15;1.70;;;5.80;10.40;;;;;;5046551;28;20954;-79
2021/04/08 06:28:18;;;;;;;1.60;1.20;;;5.80;10.30;;;;;;5044800;28;20294;-79
2021/04/08 06:30:46;;;;;;;5.43;1.30;;;5.80;11.90;;;;;;5052122;28;20209;-80
2021/04/08 06:33:14;;;;;;;1.63;1.40;;;5.80;11.20;;;;;;5060013;28;20974;-80
2021/04/08 06:35:42;;;;;;;1.77;1.33;;;5.90;11.50;;;;;;5044408;28;20467;-78
2021/04/08 06:38:09;;;;;;;2.13;1.30;;;5.90;10.20;;;;;;5046596;28;20455;-80
2021/04/08 06:40:36;;;;;;;2.13;1.43;;;6.10;9.00;;;;;;5045993;28;21008;-80
2021/04/08 06:43:04;;;;;;;2.90;1.50;;;5.90;8.40;;;;;;5041100;28;20851;-78
2021/04/08 06:45:32;;;;;;;2.63;1.80;;;6.00;8.60;;;;;;5063850;28;20467;-79
2021/04/08 06:48:05;;;;;;;1.30;1.20;;;6.00;7.00;;;;;;5057844;28;20481;-80
2021/04/08 06:50:35;;;;;;;4.60;2.03;;;6.10;7.60;;;;;;5042125;28;20958;-81
2021/04/08 06:53:05;;;;;;;2.90;1.10;;;6.10;7.60;;;;;;5047076;28;20849;-78
2021/04/08 06:55:33;;;;;;;2.00;1.27;;;6.10;6.90;;;;;;5039371;28;20471;-77
2021/04/08 06:58:03;;;;;;;2.60;1.47;;;6.10;5.00;;;;;;5035610;28;20531;-78
2021/04/08 07:00:34;;;;;;;5.97;1.60;;;6.10;6.30;;;;;;5046561;28;21137;-78
2021/04/08 07:03:03;;;;;;;2.20;1.30;;;6.10;5.30;;;;;;5043451;28;21007;-78
2021/04/08 07:05:31;;;;;;;1.87;1.70;;;6.20;5.90;;;;;;5041825;28;20457;-76
2021/04/08 07:07:59;;;;;;;2.03;1.50;;;6.20;5.80;;;;;;5046719;28;20453;-78
2021/04/08 07:10:27;;;;;;;2.75;1.40;;;6.10;4.30;;;;;;5043793;28;20557;-78
2021/04/08 07:12:55;;;;;;;2.10;1.57;;;6.20;5.40;;;;;;5044829;28;20229;-78
2021/04/08 07:15:24;;;;;;;3.30;1.40;;;6.20;3.70;;;;;;5046600;28;20464;-78
2021/04/08 07:17:51;;;;;;;2.50;1.67;;;6.30;3.50;;;;;;5041003;28;20903;-77
2021/04/08 07:20:19;;;;;;;2.63;1.80;;;6.20;2.70;;;;;;5046744;28;20480;-76
2021/04/08 07:22:46;;;;;;;2.10;1.83;;;6.30;5.30;;;;;;5043629;28;20497;-77
2021/04/08 07:25:17;;;;;;;2.60;1.70;;;6.30;5.00;;;;;;5043329;28;20530;-78
2021/04/08 07:27:44;;;;;;;2.63;1.50;;;6.30;1.50;;;;;;5046082;28;20642;-78
2021/04/08 07:30:13;;;;;;;2.43;1.50;;;6.10;1.00;;;;;;5039151;28;21156;-82
2021/04/08 07:32:41;;;;;;;4.50;2.00;;;6.10;1.00;;;;;;5047761;28;20493;-79
2021/04/08 07:35:15;;;;;;;5.60;1.83;;;6.20;1.00;;;;;;5044808;28;20477;-83
2021/04/08 07:37:44;;;;;;;3.63;1.90;;;6.30;1.70;;;;;;5044323;28;20508;-83
2021/04/08 07:40:16;;;;;;;3.47;2.13;;;6.30;1.00;;;;;;5042036;28;20753;-84
2021/04/08 07:42:44;;;;;;;3.90;2.20;;;6.30;1.00;;;;;;5053481;28;20489;-81
2021/04/08 07:45:22;;;;;;;5.23;2.40;;;6.30;1.00;;;;;;5047416;28;20475;-84
2021/04/08 07:47:57;;;;;;;3.47;2.27;;;6.40;1.00;;;;;;5047740;28;20470;-81
2021/04/08 07:50:25;;;;;;;2.90;2.07;;;6.40;1.00;;;;;;5053504;28;20459;-84
2021/04/08 07:52:52;;;;;;;5.70;2.30;;;6.50;1.70;;;;;;5046173;28;20498;-82
2021/04/08 07:55:22;;;;;;;2.73;2.23;;;6.40;1.00;;;;;;5047878;28;20470;-84
2021/04/08 07:58:01;;;;;;;2.17;2.03;;;6.50;1.00;;;;;;5047278;28;20811;-84
2021/04/08 08:00:31;;;;;;;3.03;2.60;;;6.50;1.00;;;;;;5049097;28;20475;-82
2021/04/08 08:03:02;;;;;;;4.30;2.30;;;6.60;1.00;;;;;;5049480;28;21294;-82
2021/04/08 08:05:31;;;;;;;3.40;2.60;;;6.60;1.00;;;;;;5054857;28;20468;-84
2021/04/08 08:08:10;;;;;;;3.83;3.10;;;6.60;1.00;;;;;;5053893;28;20543;-86
2021/04/08 08:10:40;;;;;;;5.17;2.50;;;6.60;1.00;;;;;;5047104;28;20465;-85
2021/04/08 08:13:24;;;;;;;4.13;2.20;;;6.90;1.00;;;;;;5048322;28;21034;-86
2021/04/08 08:15:52;;;;;;;3.70;2.47;;;6.40;1.00;;;;;;5043106;28;20505;-86
2021/04/08 08:18:28;;;;;;;3.00;2.57;;;6.40;1.00;;;;;;5048062;28;20554;-82
2021/04/08 08:21:01;;;;;;;2.07;1.97;;;6.40;1.00;;;;;;5050735;28;20842;-84
2021/04/08 08:23:36;;;;;;;5.27;2.37;;;6.50;1.00;;;;;;5044087;28;20522;-86
2021/04/08 08:26:41;;;;;;;2.87;1.83;;;6.30;1.00;;;;;;5046068;28;20476;-84
2021/04/08 08:29:16;;;;;;;2.53;2.33;;;6.30;1.00;;;;;;5047593;28;20916;-84
2021/04/08 08:31:47;;;;;;;4.83;2.90;;;6.20;1.00;;;;;;5052225;28;20493;-84
2021/04/08 08:34:18;;;;;;;3.83;2.60;;;6.40;1.00;;;;;;5047049;28;20940;-83
2021/04/08 08:36:48;;;;;;;2.63;2.03;;;6.50;1.00;;;;;;5043420;28;20478;-82
2021/04/08 08:39:17;;;;;;;3.73;1.97;;;6.70;1.00;;;;;;5044700;28;20466;-84
2021/04/08 08:41:45;;;;;;;3.20;1.97;;;6.70;1.00;;;;;;5045472;28;20549;-84
2021/04/08 08:44:15;;;;;;;2.80;1.90;;;6.80;1.00;;;;;;5044830;28;20487;-82
2021/04/08 08:46:49;;;;;;;4.00;1.83;;;6.50;1.00;;;;;;5045374;28;20474;-81
2021/04/08 08:49:22;;;;;;;3.20;1.80;;;6.40;1.00;;;;;;5050753;28;20494;-82
2021/04/08 08:51:51;;;;;;;9.97;2.97;;;6.60;1.00;;;;;;5048170;28;20911;-83
2021/04/08 08:54:18;;;;;;;3.70;2.17;;;6.90;1.00;;;;;;5058660;28;21032;-80
2021/04/08 08:56:46;;;;;;;3.23;1.80;;;7.20;1.00;;;;;;5048186;28;20983;-82
2021/04/08 08:59:15;;;;;;;3.73;2.00;;;7.40;1.00;;;;;;5040693;28;20467;-82
2021/04/08 09:01:43;;;;;;;3.60;2.27;;;7.50;1.00;;;;;;5041289;28;20490;-83
2021/04/08 09:04:11;;;;;;;6.27;1.80;;;7.40;1.00;;;;;;5045136;28;20471;-83
2021/04/08 09:06:57;;;;;;;2.40;2.20;;;7.40;1.00;;;;;;5046820;28;20561;-80
2021/04/08 09:09:27;;;;;;;3.03;1.90;;;7.40;1.00;;;;;;5036729;28;20562;-77
2021/04/08 09:11:58;;;;;;;4.70;1.70;;;7.40;1.00;;;;;;5048363;28;20489;-79
2021/04/08 09:14:27;;;;;;;2.90;1.90;;;7.10;1.00;;;;;;5040583;28;20467;-77
2021/04/08 09:16:55;;;;;;;2.47;1.60;;;6.90;1.00;;;;;;5038639;28;20997;-78
2021/04/08 09:19:28;;;;;;;3.30;1.90;;;7.00;1.00;;;;;;5058336;28;20968;-77
2021/04/08 09:22:00;;;;;;;4.60;1.80;;;7.20;1.00;;;;;;5038751;28;20666;-79
2021/04/08 09:24:38;;;;;;;6.67;1.73;;;7.20;1.00;;;;;;5045780;28;20483;-79
2021/04/08 09:27:07;;;;;;;2.80;1.60;;;7.20;1.00;;;;;;5058856;28;20573;-77
2021/04/08 09:29:52;;;;;;;2.80;1.90;;;7.20;1.00;;;;;;5040174;28;20493;-80
2021/04/08 09:32:25;;;;;;;4.50;1.63;;;7.30;1.00;;;;;;5035105;28;20529;-78
2021/04/08 09:35:15;;;;;;;5.27;2.03;;;7.50;1.00;;;;;;5046758;28;20503;-80
2021/04/08 09:38:24;;;;;;;1.80;1.40;;;7.60;1.00;;;;;;5043868;28;20465;-80
2021/04/08 09:41:03;;;;;;;3.23;1.90;;;7.60;1.00;;;;;;5038853;28;20532;-78
2021/04/08 09:43:32;;;;;;;2.50;2.30;;;7.60;1.00;;;;;;5065799;28;20627;-80
2021/04/08 09:46:09;;;;;;;1.77;1.67;;;7.60;1.00;;;;;;5063637;28;20544;-78
2021/04/08 09:48:48;;;;;;;2.43;1.50;;;7.40;1.00;;;;;;5042475;28;20580;-80
2021/04/08 09:51:38;;;;;;;9.73;1.50;;;7.50;1.00;;;;;;5039920;28;20470;-78
2021/04/08 09:54:09;;;;;;;2.97;1.60;;;7.50;1.00;;;;;;5050226;28;20469;-78
2021/04/08 09:56:42;;;;;;;2.87;1.93;;;7.50;1.00;;;;;;5050340;28;20826;-78
2021/04/08 09:59:10;;;;;;;2.83;1.80;;;7.60;1.00;;;;;;5053876;28;20565;-81
2021/04/08 10:01:39;;;;;;;1.70;1.60;;;7.60;1.00;;;;;;5050947;28;20517;-81
2021/04/08 10:04:15;;;;;;;2.90;1.87;;;7.70;1.00;;;;;;5045275;28;20467;-78
2021/04/08 10:06:43;;;;;;;7.63;2.00;;;7.70;1.00;;;;;;5046297;28;20543;-77
2021/04/08 10:09:15;;;;;;;3.33;1.93;;;7.80;1.00;;;;;;5044006;28;20575;-79
2021/04/08 10:11:43;;;;;;;1.83;1.60;;;7.90;1.00;;;;;;5040943;28;20500;-76
2021/04/08 10:14:20;;;;;;;2.30;2.00;;;8.00;1.00;;;;;;5042333;28;21033;-79
2021/04/08 10:17:01;;;;;;;2.30;2.00;;;8.10;1.00;;;;;;5043781;28;20470;-78
2021/04/08 10:19:33;;;;;;;4.87;2.20;;;8.10;1.00;;;;;;5048621;28;20558;-78
2021/04/08 10:22:01;;;;;;;3.80;2.40;;;8.10;1.00;;;;;;5046960;28;20475;-82
2021/04/08 10:24:37;;;;;;;4.63;2.47;;;8.10;1.00;;;;;;5044669;28;20201;-80
2021/04/08 10:27:13;;;;;;;2.60;1.77;;;8.00;1.00;;;;;;5049247;28;20469;-78
2021/04/08 10:29:41;;;;;;;3.93;2.00;;;7.90;1.00;;;;;;5048378;28;20479;-80
2021/04/08 10:32:10;;;;;;;2.17;2.00;;;8.00;1.00;;;;;;5042627;28;20492;-82
2021/04/08 10:34:40;;;;;;;3.53;2.05;;;8.00;1.00;;;;;;5044398;28;20446;-78
2021/04/08 10:37:09;;;;;;;2.67;2.20;;;8.10;1.00;;;;;;5066338;28;20208;-80
2021/04/08 10:39:39;;;;;;;5.53;2.47;;;8.30;1.00;;;;;;5045305;28;20532;-76
2021/04/08 10:42:10;;;;;;;3.13;1.60;;;8.40;1.00;;;;;;5050310;28;20503;-80
2021/04/08 10:44:40;;;;;;;4.50;2.80;;;8.50;1.00;;;;;;5047775;28;20458;-79
2021/04/08 10:47:14;;;;;;;2.78;1.90;;;8.50;1.00;;;;;;5044680;28;21025;-78
2021/04/08 10:49:45;;;;;;;2.57;1.80;;;8.50;1.00;;;;;;5038435;28;20230;-78
2021/04/08 10:52:17;;;;;;;3.47;2.43;;;8.50;1.00;;;;;;5044368;28;20591;-77
2021/04/08 10:54:49;;;;;;;2.60;2.33;;;8.50;1.00;;;;;;5048263;28;20463;-78
2021/04/08 10:57:17;;;;;;;2.13;1.60;;;8.30;1.00;;;;;;5048698;28;20559;-79
2021/04/08 10:59:47;;;;;;;6.60;2.60;;;8.40;1.00;;;;;;5042655;28;20562;-79
2021/04/08 11:02:20;;;;;;;3.10;1.73;;;8.50;1.00;;;;;;5045593;28;20518;-78
2021/04/08 11:04:48;;;;;;;2.75;2.13;;;8.30;1.00;;;;;;5042289;28;20572;-78
2021/04/08 11:07:16;;;;;;;2.33;1.83;;;8.20;1.00;;;;;;5047345;28;20216;-79
2021/04/08 11:09:43;;;;;;;3.20;1.77;;;7.80;1.00;;;;;;5044939;28;20499;-79
2021/04/08 11:12:24;;;;;;;4.40;2.10;;;7.80;1.00;;;;;;5040878;28;20496;-79
2021/04/08 11:14:54;;;;;;;2.00;1.80;;;8.00;1.00;;;;;;5041810;28;20475;-78
2021/04/08 11:17:25;;;;;;;4.00;2.45;;;7.90;1.00;;;;;;5038991;28;20465;-80
2021/04/08 11:19:53;;;;;;;4.13;2.03;;;8.00;1.00;;;;;;5041724;28;21704;-80
2021/04/08 11:22:22;;;;;;;3.03;2.27;;;8.10;1.00;;;;;;5049118;28;20481;-76
2021/04/08 11:24:52;;;;;;;1.63;1.40;;;8.20;1.00;;;;;;5055580;28;20544;-80
2021/04/08 11:27:27;;;;;;;3.53;2.17;;;8.20;1.00;;;;;;5053739;28;20552;-78
2021/04/08 11:29:55;;;;;;;3.20;1.50;;;8.10;1.00;;;;;;5051536;28;20474;-78
2021/04/08 11:32:23;;;;;;;2.07;1.90;;;8.20;1.00;;;;;;5046954;28;20492;-77
2021/04/08 11:34:53;;;;;;;2.20;1.40;;;8.10;1.00;;;;;;5053446;28;20553;-78
2021/04/08 11:37:33;;;;;;;2.50;1.67;;;8.20;1.00;;;;;;5046634;28;20475;-77
2021/04/08 11:40:01;;;;;;;7.53;2.03;;;8.30;1.00;;;;;;5047043;28;20461;-77
2021/04/08 11:42:32;;;;;;;3.10;1.60;;;8.30;1.00;;;;;;5043912;28;20257;-77
2021/04/08 11:45:20;;;;;;;1.67;1.50;;;8.40;1.00;;;;;;5054799;28;20465;-78
2021/04/08 11:47:56;;;;;;;1.80;1.67;;;8.40;1.00;;;;;;5051757;28;21227;-79
2021/04/08 11:50:28;;;;;;;2.30;1.60;;;8.50;1.00;;;;;;5049930;28;20549;-78
2021/04/08 11:53:07;;;;;;;2.23;1.60;;;8.50;1.00;;;;;;5050792;28;20497;-78
2021/04/08 11:55:36;;;;;;;6.37;5.77;;;8.60;1.00;;;;;;5051096;28;20568;-78
2021/04/08 11:58:05;;;;;;;2.17;1.70;;;8.50;1.00;;;;;;5049941;28;20467;-77
2021/04/08 12:00:34;;;;;;;2.50;1.80;;;8.60;1.00;;;;;;5045153;28;20733;-78
2021/04/08 12:03:15;;;;;;;3.47;1.90;;;8.70;1.00;;;;;;5043780;28;20494;-79
2021/04/08 12:05:43;;;;;;;3.20;1.60;;;8.90;1.00;;;;;;5040172;28;20452;-77
2021/04/08 12:08:11;;;;;;;3.97;2.00;;;8.80;1.00;;;;;;5033576;28;20556;-78
2021/04/08 12:10:39;;;;;;;2.63;1.30;;;8.60;1.00;;;;;;5039113;28;20481;-78
2021/04/08 12:13:08;;;;;;;3.10;1.70;;;8.60;1.00;;;;;;5036835;28;20632;-78
2021/04/08 12:15:42;;;;;;;2.70;2.50;;;8.80;1.00;;;;;;5045649;28;20477;-80
2021/04/08 12:18:17;;;;;;;2.83;1.70;;;9.00;1.00;;;;;;5046073;28;21220;-76
2021/04/08 12:20:48;;;;;;;1.33;1.23;;;9.10;1.00;;;;;;5042785;28;20482;-77
2021/04/08 12:23:19;;;;;;;2.00;1.50;;;9.00;1.00;;;;;;5038379;28;20497;-78
2021/04/08 12:25:49;;;;;;;2.43;1.40;;;9.20;1.00;;;;;;5035037;28;20463;-76
2021/04/08 12:28:18;;;;;;;2.73;1.73;;;9.20;1.00;;;;;;5037502;28;20485;-77
2021/04/08 12:30:47;;;;;;;1.40;1.30;;;9.20;1.00;;;;;;5043405;28;21267;-77
2021/04/08 12:33:21;;;;;;;3.80;1.70;;;9.10;1.00;;;;;;5044040;28;20578;-77
2021/04/08 12:35:48;;;;;;;3.23;1.67;;;9.20;1.00;;;;;;5032885;28;21294;-77
2021/04/08 12:38:17;;;;;;;3.23;1.40;;;9.30;1.00;;;;;;5043498;28;20461;-77
2021/04/08 12:40:45;;;;;;;3.27;1.70;;;9.30;1.00;;;;;;5034486;28;20462;-76
2021/04/08 12:43:13;;;;;;;2.40;1.30;;;9.20;1.00;;;;;;5042532;28;20585;-77
2021/04/08 12:45:40;;;;;;;2.23;2.03;;;9.40;1.00;;;;;;5037077;28;20898;-76
2021/04/08 12:48:08;;;;;;;2.50;1.40;;;9.50;1.00;;;;;;5042937;28;20499;-79
2021/04/08 12:50:39;;;;;;;2.73;1.60;;;9.50;1.00;;;;;;5034922;28;20804;-79
2021/04/08 12:53:06;;;;;;;1.80;1.70;;;9.50;1.00;;;;;;5041980;28;21099;-79
2021/04/08 12:55:35;;;;;;;2.93;2.70;;;9.50;1.00;;;;;;5040843;28;20456;-77
2021/04/08 12:58:09;;;;;;;2.83;1.63;;;9.50;1.00;;;;;;5035666;28;20474;-78
2021/04/08 13:00:37;;;;;;;4.53;1.80;;;9.20;1.00;;;;;;5038163;28;20462;-76
2021/04/08 13:03:05;;;;;;;9.00;1.80;;;9.10;1.00;;;;;;5038148;28;20482;-78
2021/04/08 13:05:33;;;;;;;2.10;2.00;;;9.30;1.00;;;;;;5033398;28;20476;-77
2021/04/08 13:08:02;;;;;;;2.10;2.00;;;9.30;1.00;;;;;;5036509;28;20836;-78
2021/04/08 13:10:30;;;;;;;5.33;1.60;;;9.30;1.00;;;;;;5037860;28;20479;-77
2021/04/08 13:12:58;;;;;;;1.90;1.80;;;9.10;1.00;;;;;;5038790;28;20542;-78
2021/04/08 13:15:26;;;;;;;3.40;1.87;;;8.80;1.00;;;;;;5042994;28;20546;-79
2021/04/08 13:17:56;;;;;;;3.03;2.50;;;8.60;1.00;;;;;;5034252;28;21034;-80
2021/04/08 13:20:24;;;;;;;2.47;1.97;;;8.70;1.00;;;;;;5036727;28;20476;-80